sensor_id;sensor_type;location;lat;lon;timestamp;P1;durP1;ratioP1;P2;durP2;ratioP2
42514;SDS011;28144;49.920;18.730;2024-02-16T00:01:02;11.35;;;5.53;;
42514;SDS011;28144;49.920;18.730;2024-02-16T00:03:34;7.90;;;3.60;;
42514;SDS011;28144;49.920;18.730;2024-02-16T00:06:00;5.00;;;2.67;;
42514;SDS011;28144;49.920;18.730;2024-02-16T00:08:26;9.77;;;4.50;;
42514;SDS011;28144;49.920;18.730;2024-02-16T00:10:52;10.60;;;5.17;;
42514;SDS011;28144;49.920;18.730;2024-02-16T00:13:17;17.13;;;7.27;;
42514;SDS011;28144;49.920;18.730;2024-02-16T00:15:43;32.60;;;11.40;;
42514;SDS011;28144;49.920;18.730;2024-02-16T00:18:09;41.70;;;14.27;;
42514;SDS011;28144;49.920;18.730;2024-02-16T00:20:35;38.67;;;13.10;;
42514;SDS011;28144;49.920;18.730;2024-02-16T00:23:01;45.40;;;18.03;;
42514;SDS011;28144;49.920;18.730;2024-02-16T00:25:26;46.33;;;19.33;;
42514;SDS011;28144;49.920;18.730;2024-02-16T00:27:52;40.73;;;15.23;;
42514;SDS011;28144;49.920;18.730;2024-02-16T00:30:21;36.50;;;12.77;;
42514;SDS011;28144;49.920;18.730;2024-02-16T00:32:48;22.27;;;8.70;;
42514;SDS011;28144;49.920;18.730;2024-02-16T00:35:17;39.87;;;13.40;;
42514;SDS011;28144;49.920;18.730;2024-02-16T00:37:43;28.37;;;10.90;;
42514;SDS011;28144;49.920;18.730;2024-02-16T00:40:09;37.00;;;13.77;;
42514;SDS011;28144;49.920;18.730;2024-02-16T00:42:35;39.40;;;13.52;;
42514;SDS011;28144;49.920;18.730;2024-02-16T00:45:01;27.10;;;10.57;;
42514;SDS011;28144;49.920;18.730;2024-02-16T00:47:27;59.78;;;28.67;;
42514;SDS011;28144;49.920;18.730;2024-02-16T00:49:53;74.93;;;40.77;;
42514;SDS011;28144;49.920;18.730;2024-02-16T00:52:19;37.43;;;18.87;;
42514;SDS011;28144;49.920;18.730;2024-02-16T00:54:44;24.53;;;12.27;;
42514;SDS011;28144;49.920;18.730;2024-02-16T00:57:12;212.97;;;53.37;;
42514;SDS011;28144;49.920;18.730;2024-02-16T00:59:39;186.53;;;52.07;;
42514;SDS011;28144;49.920;18.730;2024-02-16T01:02:06;74.90;;;25.42;;
42514;SDS011;28144;49.920;18.730;2024-02-16T01:04:32;46.20;;;17.77;;
42514;SDS011;28144;49.920;18.730;2024-02-16T01:07:01;60.97;;;29.30;;
42514;SDS011;28144;49.920;18.730;2024-02-16T01:09:26;497.03;;;280.67;;
42514;SDS011;28144;49.920;18.730;2024-02-16T01:11:52;266.03;;;89.13;;
42514;SDS011;28144;49.920;18.730;2024-02-16T01:14:18;249.17;;;62.17;;
42514;SDS011;28144;49.920;18.730;2024-02-16T01:16:45;144.00;;;43.78;;
42514;SDS011;28144;49.920;18.730;2024-02-16T01:19:11;83.28;;;29.20;;
42514;SDS011;28144;49.920;18.730;2024-02-16T01:21:37;53.83;;;20.20;;
42514;SDS011;28144;49.920;18.730;2024-02-16T01:24:02;59.00;;;22.60;;
42514;SDS011;28144;49.920;18.730;2024-02-16T01:26:29;50.17;;;20.67;;
42514;SDS011;28144;49.920;18.730;2024-02-16T01:28:55;52.50;;;20.33;;
42514;SDS011;28144;49.920;18.730;2024-02-16T01:31:21;43.08;;;18.52;;
42514;SDS011;28144;49.920;18.730;2024-02-16T01:33:46;45.03;;;16.70;;
42514;SDS011;28144;49.920;18.730;2024-02-16T01:36:12;30.23;;;16.17;;
42514;SDS011;28144;49.920;18.730;2024-02-16T01:38:39;49.58;;;19.02;;
42514;SDS011;28144;49.920;18.730;2024-02-16T01:41:05;37.27;;;15.80;;
42514;SDS011;28144;49.920;18.730;2024-02-16T01:43:32;34.27;;;15.07;;
42514;SDS011;28144;49.920;18.730;2024-02-16T01:45:58;32.20;;;14.50;;
42514;SDS011;28144;49.920;18.730;2024-02-16T01:48:25;40.80;;;17.08;;
42514;SDS011;28144;49.920;18.730;2024-02-16T01:50:51;46.83;;;18.55;;
42514;SDS011;28144;49.920;18.730;2024-02-16T01:53:17;69.65;;;26.88;;
42514;SDS011;28144;49.920;18.730;2024-02-16T01:55:47;39.00;;;15.20;;
42514;SDS011;28144;49.920;18.730;2024-02-16T01:58:12;40.70;;;16.73;;
42514;SDS011;28144;49.920;18.730;2024-02-16T02:00:39;49.30;;;18.13;;
42514;SDS011;28144;49.920;18.730;2024-02-16T02:03:06;28.23;;;13.40;;
42514;SDS011;28144;49.920;18.730;2024-02-16T02:05:32;25.98;;;13.55;;
42514;SDS011;28144;49.920;18.730;2024-02-16T02:07:58;32.80;;;16.57;;
42514;SDS011;28144;49.920;18.730;2024-02-16T02:10:24;22.08;;;12.52;;
42514;SDS011;28144;49.920;18.730;2024-02-16T02:12:50;22.30;;;10.17;;
42514;SDS011;28144;49.920;18.730;2024-02-16T02:15:16;24.90;;;12.37;;
42514;SDS011;28144;49.920;18.730;2024-02-16T02:17:41;24.53;;;15.00;;
42514;SDS011;28144;49.920;18.730;2024-02-16T02:20:08;24.23;;;12.02;;
42514;SDS011;28144;49.920;18.730;2024-02-16T02:22:39;20.20;;;10.70;;
42514;SDS011;28144;49.920;18.730;2024-02-16T02:25:05;31.10;;;15.00;;
42514;SDS011;28144;49.920;18.730;2024-02-16T02:27:31;30.07;;;16.63;;
42514;SDS011;28144;49.920;18.730;2024-02-16T02:29:57;28.67;;;14.23;;
42514;SDS011;28144;49.920;18.730;2024-02-16T02:32:23;71.88;;;23.60;;
42514;SDS011;28144;49.920;18.730;2024-02-16T02:34:49;32.27;;;14.63;;
42514;SDS011;28144;49.920;18.730;2024-02-16T02:37:15;92.90;;;27.17;;
42514;SDS011;28144;49.920;18.730;2024-02-16T02:39:41;56.13;;;21.13;;
42514;SDS011;28144;49.920;18.730;2024-02-16T02:42:07;37.53;;;15.87;;
42514;SDS011;28144;49.920;18.730;2024-02-16T02:44:33;31.48;;;16.10;;
42514;SDS011;28144;49.920;18.730;2024-02-16T02:47:00;29.70;;;16.35;;
42514;SDS011;28144;49.920;18.730;2024-02-16T02:49:26;25.30;;;12.57;;
42514;SDS011;28144;49.920;18.730;2024-02-16T02:51:52;25.07;;;12.47;;
42514;SDS011;28144;49.920;18.730;2024-02-16T02:54:18;30.40;;;14.40;;
42514;SDS011;28144;49.920;18.730;2024-02-16T02:56:43;25.20;;;13.53;;
42514;SDS011;28144;49.920;18.730;2024-02-16T02:59:09;22.40;;;12.10;;
42514;SDS011;28144;49.920;18.730;2024-02-16T03:01:36;26.17;;;11.13;;
42514;SDS011;28144;49.920;18.730;2024-02-16T03:04:02;25.25;;;12.48;;
42514;SDS011;28144;49.920;18.730;2024-02-16T03:06:29;34.17;;;17.98;;
42514;SDS011;28144;49.920;18.730;2024-02-16T03:08:55;30.10;;;14.03;;
42514;SDS011;28144;49.920;18.730;2024-02-16T03:11:20;18.13;;;10.73;;
42514;SDS011;28144;49.920;18.730;2024-02-16T03:13:46;30.47;;;12.67;;
42514;SDS011;28144;49.920;18.730;2024-02-16T03:16:12;20.80;;;11.73;;
42514;SDS011;28144;49.920;18.730;2024-02-16T03:18:38;29.47;;;13.13;;
42514;SDS011;28144;49.920;18.730;2024-02-16T03:21:04;25.50;;;12.27;;
42514;SDS011;28144;49.920;18.730;2024-02-16T03:23:30;25.80;;;12.30;;
42514;SDS011;28144;49.920;18.730;2024-02-16T03:25:56;26.07;;;11.57;;
42514;SDS011;28144;49.920;18.730;2024-02-16T03:28:22;28.93;;;11.13;;
42514;SDS011;28144;49.920;18.730;2024-02-16T03:30:47;22.07;;;10.93;;
42514;SDS011;28144;49.920;18.730;2024-02-16T03:33:13;40.00;;;27.23;;
42514;SDS011;28144;49.920;18.730;2024-02-16T03:35:39;49.97;;;28.30;;
42514;SDS011;28144;49.920;18.730;2024-02-16T03:38:06;41.28;;;22.20;;
42514;SDS011;28144;49.920;18.730;2024-02-16T03:40:31;29.55;;;16.63;;
42514;SDS011;28144;49.920;18.730;2024-02-16T03:42:58;35.95;;;19.48;;
42514;SDS011;28144;49.920;18.730;2024-02-16T03:45:24;32.00;;;16.02;;
42514;SDS011;28144;49.920;18.730;2024-02-16T03:47:50;31.67;;;14.07;;
42514;SDS011;28144;49.920;18.730;2024-02-16T03:50:19;25.60;;;14.43;;
42514;SDS011;28144;49.920;18.730;2024-02-16T03:52:45;25.15;;;13.00;;
42514;SDS011;28144;49.920;18.730;2024-02-16T03:55:11;31.80;;;15.73;;
42514;SDS011;28144;49.920;18.730;2024-02-16T03:57:37;28.67;;;14.80;;
42514;SDS011;28144;49.920;18.730;2024-02-16T04:00:03;36.58;;;14.38;;
42514;SDS011;28144;49.920;18.730;2024-02-16T04:02:31;27.53;;;15.40;;
42514;SDS011;28144;49.920;18.730;2024-02-16T04:04:57;26.70;;;13.10;;
42514;SDS011;28144;49.920;18.730;2024-02-16T04:07:23;28.02;;;15.02;;
42514;SDS011;28144;49.920;18.730;2024-02-16T04:09:49;26.20;;;12.13;;
42514;SDS011;28144;49.920;18.730;2024-02-16T04:12:15;30.85;;;20.70;;
42514;SDS011;28144;49.920;18.730;2024-02-16T04:14:41;28.73;;;15.17;;
42514;SDS011;28144;49.920;18.730;2024-02-16T04:17:07;34.60;;;17.50;;
42514;SDS011;28144;49.920;18.730;2024-02-16T04:19:33;27.83;;;14.50;;
42514;SDS011;28144;49.920;18.730;2024-02-16T04:21:58;40.37;;;18.37;;
42514;SDS011;28144;49.920;18.730;2024-02-16T04:24:24;25.90;;;14.03;;
42514;SDS011;28144;49.920;18.730;2024-02-16T04:26:50;36.07;;;19.50;;
42514;SDS011;28144;49.920;18.730;2024-02-16T04:29:16;37.00;;;17.73;;
42514;SDS011;28144;49.920;18.730;2024-02-16T04:31:42;41.83;;;25.87;;
42514;SDS011;28144;49.920;18.730;2024-02-16T04:34:08;26.43;;;14.73;;
42514;SDS011;28144;49.920;18.730;2024-02-16T04:36:34;31.73;;;19.25;;
42514;SDS011;28144;49.920;18.730;2024-02-16T04:39:00;24.07;;;15.73;;
42514;SDS011;28144;49.920;18.730;2024-02-16T04:41:27;21.63;;;12.07;;
42514;SDS011;28144;49.920;18.730;2024-02-16T04:43:52;29.43;;;13.97;;
42514;SDS011;28144;49.920;18.730;2024-02-16T04:46:19;22.65;;;12.32;;
42514;SDS011;28144;49.920;18.730;2024-02-16T04:48:44;24.53;;;14.73;;
42514;SDS011;28144;49.920;18.730;2024-02-16T04:51:11;34.75;;;21.17;;
42514;SDS011;28144;49.920;18.730;2024-02-16T04:53:37;40.10;;;20.20;;
42514;SDS011;28144;49.920;18.730;2024-02-16T04:56:03;35.70;;;18.08;;
42514;SDS011;28144;49.920;18.730;2024-02-16T04:58:30;30.10;;;15.90;;
42514;SDS011;28144;49.920;18.730;2024-02-16T05:00:56;35.53;;;17.63;;
42514;SDS011;28144;49.920;18.730;2024-02-16T05:03:22;40.83;;;23.00;;
42514;SDS011;28144;49.920;18.730;2024-02-16T05:05:48;32.10;;;18.80;;
42514;SDS011;28144;49.920;18.730;2024-02-16T05:08:14;29.87;;;15.93;;
42514;SDS011;28144;49.920;18.730;2024-02-16T05:10:40;55.03;;;24.00;;
42514;SDS011;28144;49.920;18.730;2024-02-16T05:13:06;47.47;;;22.50;;
42514;SDS011;28144;49.920;18.730;2024-02-16T05:15:32;39.30;;;20.27;;
42514;SDS011;28144;49.920;18.730;2024-02-16T05:17:58;40.47;;;21.83;;
42514;SDS011;28144;49.920;18.730;2024-02-16T05:20:24;33.97;;;15.47;;
42514;SDS011;28144;49.920;18.730;2024-02-16T05:22:49;36.43;;;18.43;;
42514;SDS011;28144;49.920;18.730;2024-02-16T05:25:16;90.10;;;60.90;;
42514;SDS011;28144;49.920;18.730;2024-02-16T05:27:43;38.93;;;22.13;;
42514;SDS011;28144;49.920;18.730;2024-02-16T05:30:10;41.30;;;24.15;;
42514;SDS011;28144;49.920;18.730;2024-02-16T05:32:38;50.00;;;26.13;;
42514;SDS011;28144;49.920;18.730;2024-02-16T05:35:05;43.42;;;24.55;;
42514;SDS011;28144;49.920;18.730;2024-02-16T05:37:40;85.53;;;37.87;;
42514;SDS011;28144;49.920;18.730;2024-02-16T05:40:12;85.03;;;43.13;;
42514;SDS011;28144;49.920;18.730;2024-02-16T05:42:48;35.67;;;19.53;;
42514;SDS011;28144;49.920;18.730;2024-02-16T05:45:14;53.47;;;27.88;;
42514;SDS011;28144;49.920;18.730;2024-02-16T05:47:46;40.47;;;22.77;;
42514;SDS011;28144;49.920;18.730;2024-02-16T05:50:12;38.13;;;21.90;;
42514;SDS011;28144;49.920;18.730;2024-02-16T05:52:38;43.08;;;21.40;;
42514;SDS011;28144;49.920;18.730;2024-02-16T05:55:08;66.63;;;30.10;;
42514;SDS011;28144;49.920;18.730;2024-02-16T05:57:37;65.37;;;30.30;;
42514;SDS011;28144;49.920;18.730;2024-02-16T06:00:04;62.13;;;32.87;;
42514;SDS011;28144;49.920;18.730;2024-02-16T06:02:32;58.80;;;30.53;;
42514;SDS011;28144;49.920;18.730;2024-02-16T06:04:59;56.10;;;29.10;;
42514;SDS011;28144;49.920;18.730;2024-02-16T06:07:25;63.78;;;27.08;;
42514;SDS011;28144;49.920;18.730;2024-02-16T06:09:51;52.30;;;27.50;;
42514;SDS011;28144;49.920;18.730;2024-02-16T06:12:19;56.40;;;27.20;;
42514;SDS011;28144;49.920;18.730;2024-02-16T06:14:46;69.63;;;31.42;;
42514;SDS011;28144;49.920;18.730;2024-02-16T06:17:12;86.70;;;36.72;;
42514;SDS011;28144;49.920;18.730;2024-02-16T06:19:40;69.63;;;34.87;;
42514;SDS011;28144;49.920;18.730;2024-02-16T06:22:06;75.68;;;36.97;;
42514;SDS011;28144;49.920;18.730;2024-02-16T06:24:34;92.22;;;39.47;;
42514;SDS011;28144;49.920;18.730;2024-02-16T06:26:59;201.52;;;91.22;;
42514;SDS011;28144;49.920;18.730;2024-02-16T06:29:26;116.57;;;75.30;;
42514;SDS011;28144;49.920;18.730;2024-02-16T06:31:51;62.37;;;30.73;;
42514;SDS011;28144;49.920;18.730;2024-02-16T06:34:18;82.90;;;47.78;;
42514;SDS011;28144;49.920;18.730;2024-02-16T06:36:44;67.40;;;37.60;;
42514;SDS011;28144;49.920;18.730;2024-02-16T06:39:10;64.53;;;38.33;;
42514;SDS011;28144;49.920;18.730;2024-02-16T06:41:36;60.47;;;32.50;;
42514;SDS011;28144;49.920;18.730;2024-02-16T06:44:03;80.72;;;41.25;;
42514;SDS011;28144;49.920;18.730;2024-02-16T06:46:30;57.03;;;31.13;;
42514;SDS011;28144;49.920;18.730;2024-02-16T06:48:56;60.45;;;31.33;;
42514;SDS011;28144;49.920;18.730;2024-02-16T06:51:25;73.13;;;42.50;;
42514;SDS011;28144;49.920;18.730;2024-02-16T06:53:52;75.67;;;38.27;;
42514;SDS011;28144;49.920;18.730;2024-02-16T06:56:18;76.60;;;40.97;;
42514;SDS011;28144;49.920;18.730;2024-02-16T06:58:47;71.90;;;39.55;;
42514;SDS011;28144;49.920;18.730;2024-02-16T07:01:13;81.13;;;40.67;;
42514;SDS011;28144;49.920;18.730;2024-02-16T07:03:40;72.30;;;40.60;;
42514;SDS011;28144;49.920;18.730;2024-02-16T07:06:06;90.60;;;50.30;;
42514;SDS011;28144;49.920;18.730;2024-02-16T07:08:41;89.00;;;46.87;;
42514;SDS011;28144;49.920;18.730;2024-02-16T07:11:08;104.20;;;60.40;;
42514;SDS011;28144;49.920;18.730;2024-02-16T07:13:34;108.63;;;61.03;;
42514;SDS011;28144;49.920;18.730;2024-02-16T07:16:00;101.03;;;55.97;;
42514;SDS011;28144;49.920;18.730;2024-02-16T07:18:26;100.05;;;58.05;;
42514;SDS011;28144;49.920;18.730;2024-02-16T07:20:51;108.20;;;64.13;;
42514;SDS011;28144;49.920;18.730;2024-02-16T07:23:17;108.00;;;55.67;;
42514;SDS011;28144;49.920;18.730;2024-02-16T07:25:43;102.40;;;57.37;;
42514;SDS011;28144;49.920;18.730;2024-02-16T07:28:09;103.20;;;61.33;;
42514;SDS011;28144;49.920;18.730;2024-02-16T07:30:35;98.90;;;56.60;;
42514;SDS011;28144;49.920;18.730;2024-02-16T07:33:07;108.73;;;58.20;;
42514;SDS011;28144;49.920;18.730;2024-02-16T07:35:33;108.07;;;57.90;;
42514;SDS011;28144;49.920;18.730;2024-02-16T07:38:04;103.00;;;58.23;;
42514;SDS011;28144;49.920;18.730;2024-02-16T07:40:30;109.77;;;58.87;;
42514;SDS011;28144;49.920;18.730;2024-02-16T07:42:57;113.65;;;59.65;;
42514;SDS011;28144;49.920;18.730;2024-02-16T07:45:23;110.97;;;60.87;;
42514;SDS011;28144;49.920;18.730;2024-02-16T07:47:49;113.83;;;57.73;;
42514;SDS011;28144;49.920;18.730;2024-02-16T07:50:18;106.07;;;60.37;;
42514;SDS011;28144;49.920;18.730;2024-02-16T07:52:45;110.03;;;61.87;;
42514;SDS011;28144;49.920;18.730;2024-02-16T07:55:11;97.30;;;56.73;;
42514;SDS011;28144;49.920;18.730;2024-02-16T07:57:37;102.27;;;59.93;;
42514;SDS011;28144;49.920;18.730;2024-02-16T08:00:05;107.77;;;61.10;;
42514;SDS011;28144;49.920;18.730;2024-02-16T08:02:32;97.93;;;61.00;;
42514;SDS011;28144;49.920;18.730;2024-02-16T08:04:58;98.47;;;60.47;;
42514;SDS011;28144;49.920;18.730;2024-02-16T08:07:24;111.13;;;65.57;;
42514;SDS011;28144;49.920;18.730;2024-02-16T08:09:50;107.10;;;61.07;;
42514;SDS011;28144;49.920;18.730;2024-02-16T08:12:16;104.70;;;57.13;;
42514;SDS011;28144;49.920;18.730;2024-02-16T08:14:41;98.93;;;58.90;;
42514;SDS011;28144;49.920;18.730;2024-02-16T08:17:08;92.93;;;53.97;;
42514;SDS011;28144;49.920;18.730;2024-02-16T08:19:35;102.57;;;60.33;;
42514;SDS011;28144;49.920;18.730;2024-02-16T08:22:05;107.30;;;68.43;;
42514;SDS011;28144;49.920;18.730;2024-02-16T08:24:36;85.60;;;50.23;;
42514;SDS011;28144;49.920;18.730;2024-02-16T08:27:02;89.87;;;50.97;;
42514;SDS011;28144;49.920;18.730;2024-02-16T08:31:55;75.90;;;42.95;;
42514;SDS011;28144;49.920;18.730;2024-02-16T08:34:21;80.83;;;45.40;;
42514;SDS011;28144;49.920;18.730;2024-02-16T08:36:47;70.05;;;39.60;;
42514;SDS011;28144;49.920;18.730;2024-02-16T08:39:14;71.88;;;40.45;;
42514;SDS011;28144;49.920;18.730;2024-02-16T08:41:41;67.33;;;41.23;;
42514;SDS011;28144;49.920;18.730;2024-02-16T08:44:09;67.27;;;38.27;;
42514;SDS011;28144;49.920;18.730;2024-02-16T08:46:36;71.68;;;39.67;;
42514;SDS011;28144;49.920;18.730;2024-02-16T08:49:02;66.57;;;39.63;;
42514;SDS011;28144;49.920;18.730;2024-02-16T08:53:54;78.97;;;41.90;;
42514;SDS011;28144;49.920;18.730;2024-02-16T08:56:20;89.40;;;43.80;;
42514;SDS011;28144;49.920;18.730;2024-02-16T08:58:46;84.53;;;41.07;;
42514;SDS011;28144;49.920;18.730;2024-02-16T09:01:11;71.60;;;39.80;;
42514;SDS011;28144;49.920;18.730;2024-02-16T09:03:37;72.23;;;38.43;;
42514;SDS011;28144;49.920;18.730;2024-02-16T09:06:04;70.97;;;38.92;;
42514;SDS011;28144;49.920;18.730;2024-02-16T09:08:29;68.20;;;36.78;;
42514;SDS011;28144;49.920;18.730;2024-02-16T09:11:03;67.05;;;36.33;;
42514;SDS011;28144;49.920;18.730;2024-02-16T09:13:33;64.97;;;35.72;;
42514;SDS011;28144;49.920;18.730;2024-02-16T09:16:01;63.97;;;35.30;;
42514;SDS011;28144;49.920;18.730;2024-02-16T09:18:27;68.60;;;37.17;;
42514;SDS011;28144;49.920;18.730;2024-02-16T09:20:53;55.93;;;31.77;;
42514;SDS011;28144;49.920;18.730;2024-02-16T09:23:19;56.93;;;29.07;;
42514;SDS011;28144;49.920;18.730;2024-02-16T09:25:45;26.70;;;16.05;;
42514;SDS011;28144;49.920;18.730;2024-02-16T09:28:14;20.63;;;8.02;;
42514;SDS011;28144;49.920;18.730;2024-02-16T09:30:40;7.22;;;4.30;;
42514;SDS011;28144;49.920;18.730;2024-02-16T09:33:06;6.57;;;2.50;;
42514;SDS011;28144;49.920;18.730;2024-02-16T09:35:32;6.15;;;2.53;;
42514;SDS011;28144;49.920;18.730;2024-02-16T09:37:58;4.80;;;2.13;;
42514;SDS011;28144;49.920;18.730;2024-02-16T09:40:24;2.80;;;1.80;;
42514;SDS011;28144;49.920;18.730;2024-02-16T09:42:50;3.23;;;1.80;;
42514;SDS011;28144;49.920;18.730;2024-02-16T09:45:16;3.08;;;2.00;;
42514;SDS011;28144;49.920;18.730;2024-02-16T09:47:42;3.87;;;1.90;;
42514;SDS011;28144;49.920;18.730;2024-02-16T09:50:09;3.38;;;2.00;;
42514;SDS011;28144;49.920;18.730;2024-02-16T09:52:38;5.22;;;2.08;;
42514;SDS011;28144;49.920;18.730;2024-02-16T09:55:04;6.32;;;2.10;;
42514;SDS011;28144;49.920;18.730;2024-02-16T09:57:33;2.92;;;2.17;;
42514;SDS011;28144;49.920;18.730;2024-02-16T09:59:59;12.87;;;4.50;;
42514;SDS011;28144;49.920;18.730;2024-02-16T10:02:25;7.60;;;2.30;;
42514;SDS011;28144;49.920;18.730;2024-02-16T10:04:50;3.90;;;2.20;;
42514;SDS011;28144;49.920;18.730;2024-02-16T10:07:19;19.27;;;5.97;;
42514;SDS011;28144;49.920;18.730;2024-02-16T10:09:56;7.22;;;2.67;;
42514;SDS011;28144;49.920;18.730;2024-02-16T10:12:22;12.90;;;4.40;;
42514;SDS011;28144;49.920;18.730;2024-02-16T10:14:54;5.03;;;2.42;;
42514;SDS011;28144;49.920;18.730;2024-02-16T10:17:21;3.95;;;2.22;;
42514;SDS011;28144;49.920;18.730;2024-02-16T10:19:57;4.88;;;2.15;;
42514;SDS011;28144;49.920;18.730;2024-02-16T10:22:24;4.75;;;2.08;;
42514;SDS011;28144;49.920;18.730;2024-02-16T10:24:50;3.10;;;2.20;;
42514;SDS011;28144;49.920;18.730;2024-02-16T10:27:18;9.40;;;2.67;;
42514;SDS011;28144;49.920;18.730;2024-02-16T10:29:49;9.77;;;3.10;;
42514;SDS011;28144;49.920;18.730;2024-02-16T10:32:16;7.70;;;3.13;;
42514;SDS011;28144;49.920;18.730;2024-02-16T10:34:42;6.85;;;2.90;;
42514;SDS011;28144;49.920;18.730;2024-02-16T10:37:08;27.10;;;7.70;;
42514;SDS011;28144;49.920;18.730;2024-02-16T10:39:35;3.05;;;2.38;;
42514;SDS011;28144;49.920;18.730;2024-02-16T10:42:03;5.60;;;3.17;;
42514;SDS011;28144;49.920;18.730;2024-02-16T10:44:30;4.93;;;2.83;;
42514;SDS011;28144;49.920;18.730;2024-02-16T10:46:56;3.33;;;2.30;;
42514;SDS011;28144;49.920;18.730;2024-02-16T10:49:25;6.07;;;2.97;;
42514;SDS011;28144;49.920;18.730;2024-02-16T10:51:52;9.85;;;3.65;;
42514;SDS011;28144;49.920;18.730;2024-02-16T10:54:22;10.57;;;4.75;;
42514;SDS011;28144;49.920;18.730;2024-02-16T10:56:49;5.82;;;3.15;;
42514;SDS011;28144;49.920;18.730;2024-02-16T10:59:19;7.28;;;3.33;;
42514;SDS011;28144;49.920;18.730;2024-02-16T11:01:44;5.40;;;3.00;;
42514;SDS011;28144;49.920;18.730;2024-02-16T11:04:14;9.50;;;3.33;;
42514;SDS011;28144;49.920;18.730;2024-02-16T11:12:02;6.00;;;3.42;;
42514;SDS011;28144;49.920;18.730;2024-02-16T11:17:14;12.43;;;6.93;;
42514;SDS011;28144;49.920;18.730;2024-02-16T11:22:10;9.30;;;4.45;;
42514;SDS011;28144;49.920;18.730;2024-02-16T11:24:43;7.68;;;4.25;;
42514;SDS011;28144;49.920;18.730;2024-02-16T11:27:10;6.70;;;3.28;;
42514;SDS011;28144;49.920;18.730;2024-02-16T11:29:36;7.40;;;3.22;;
42514;SDS011;28144;49.920;18.730;2024-02-16T11:32:04;6.03;;;3.70;;
42514;SDS011;28144;49.920;18.730;2024-02-16T11:34:31;12.35;;;5.22;;
42514;SDS011;28144;49.920;18.730;2024-02-16T11:36:59;10.95;;;4.60;;
42514;SDS011;28144;49.920;18.730;2024-02-16T11:39:25;7.40;;;3.80;;
42514;SDS011;28144;49.920;18.730;2024-02-16T11:42:02;9.45;;;4.95;;
42514;SDS011;28144;49.920;18.730;2024-02-16T11:44:38;10.43;;;5.43;;
42514;SDS011;28144;49.920;18.730;2024-02-16T11:47:08;10.38;;;4.25;;
42514;SDS011;28144;49.920;18.730;2024-02-16T11:49:42;5.22;;;3.35;;
42514;SDS011;28144;49.920;18.730;2024-02-16T11:52:08;8.30;;;3.40;;
42514;SDS011;28144;49.920;18.730;2024-02-16T11:54:34;6.80;;;3.90;;
42514;SDS011;28144;49.920;18.730;2024-02-16T11:57:02;6.80;;;3.72;;
42514;SDS011;28144;49.920;18.730;2024-02-16T11:59:29;12.15;;;6.90;;
42514;SDS011;28144;49.920;18.730;2024-02-16T12:01:57;7.63;;;3.72;;
42514;SDS011;28144;49.920;18.730;2024-02-16T12:04:24;6.45;;;3.70;;
42514;SDS011;28144;49.920;18.730;2024-02-16T12:07:00;6.72;;;4.15;;
42514;SDS011;28144;49.920;18.730;2024-02-16T12:09:28;9.05;;;5.85;;
42514;SDS011;28144;49.920;18.730;2024-02-16T12:11:57;13.70;;;4.03;;
42514;SDS011;28144;49.920;18.730;2024-02-16T12:14:23;8.38;;;3.40;;
42514;SDS011;28144;49.920;18.730;2024-02-16T12:16:55;16.65;;;3.67;;
42514;SDS011;28144;49.920;18.730;2024-02-16T12:19:22;6.90;;;3.33;;
42514;SDS011;28144;49.920;18.730;2024-02-16T12:21:51;10.98;;;3.75;;
42514;SDS011;28144;49.920;18.730;2024-02-16T12:24:18;10.23;;;4.07;;
42514;SDS011;28144;49.920;18.730;2024-02-16T12:26:44;8.95;;;3.60;;
42514;SDS011;28144;49.920;18.730;2024-02-16T12:29:10;5.38;;;3.17;;
42514;SDS011;28144;49.920;18.730;2024-02-16T12:31:38;8.57;;;3.88;;
42514;SDS011;28144;49.920;18.730;2024-02-16T12:34:06;8.85;;;3.85;;
42514;SDS011;28144;49.920;18.730;2024-02-16T12:36:39;7.07;;;4.03;;
42514;SDS011;28144;49.920;18.730;2024-02-16T12:39:06;10.57;;;3.92;;
42514;SDS011;28144;49.920;18.730;2024-02-16T12:41:32;6.67;;;3.80;;
42514;SDS011;28144;49.920;18.730;2024-02-16T12:43:59;7.72;;;3.17;;
42514;SDS011;28144;49.920;18.730;2024-02-16T12:46:25;5.90;;;3.67;;
42514;SDS011;28144;49.920;18.730;2024-02-16T12:48:51;6.57;;;3.40;;
42514;SDS011;28144;49.920;18.730;2024-02-16T12:51:18;6.50;;;3.88;;
42514;SDS011;28144;49.920;18.730;2024-02-16T12:53:44;6.35;;;4.38;;
42514;SDS011;28144;49.920;18.730;2024-02-16T12:56:10;10.07;;;3.90;;
42514;SDS011;28144;49.920;18.730;2024-02-16T12:58:36;6.18;;;3.05;;
42514;SDS011;28144;49.920;18.730;2024-02-16T13:01:02;7.72;;;4.25;;
42514;SDS011;28144;49.920;18.730;2024-02-16T13:03:33;5.93;;;4.28;;
42514;SDS011;28144;49.920;18.730;2024-02-16T13:06:02;13.68;;;7.35;;
42514;SDS011;28144;49.920;18.730;2024-02-16T13:08:29;10.80;;;5.07;;
42514;SDS011;28144;49.920;18.730;2024-02-16T13:10:55;39.30;;;20.38;;
42514;SDS011;28144;49.920;18.730;2024-02-16T13:13:21;13.82;;;6.65;;
42514;SDS011;28144;49.920;18.730;2024-02-16T13:15:48;7.00;;;4.13;;
42514;SDS011;28144;49.920;18.730;2024-02-16T13:18:14;20.60;;;9.90;;
42514;SDS011;28144;49.920;18.730;2024-02-16T13:20:40;6.25;;;3.45;;
42514;SDS011;28144;49.920;18.730;2024-02-16T13:23:06;7.82;;;3.30;;
42514;SDS011;28144;49.920;18.730;2024-02-16T13:25:31;12.53;;;6.03;;
42514;SDS011;28144;49.920;18.730;2024-02-16T13:27:58;28.80;;;15.63;;
42514;SDS011;28144;49.920;18.730;2024-02-16T13:32:50;8.68;;;4.43;;
42514;SDS011;28144;49.920;18.730;2024-02-16T13:35:16;5.10;;;2.70;;
42514;SDS011;28144;49.920;18.730;2024-02-16T13:37:42;4.45;;;2.05;;
42514;SDS011;28144;49.920;18.730;2024-02-16T13:40:08;2.60;;;1.60;;
42514;SDS011;28144;49.920;18.730;2024-02-16T13:42:40;4.05;;;2.28;;
42514;SDS011;28144;49.920;18.730;2024-02-16T13:45:07;6.13;;;5.30;;
42514;SDS011;28144;49.920;18.730;2024-02-16T13:47:33;3.60;;;2.42;;
42514;SDS011;28144;49.920;18.730;2024-02-16T13:49:59;2.50;;;2.27;;
42514;SDS011;28144;49.920;18.730;2024-02-16T13:52:25;7.68;;;2.08;;
42514;SDS011;28144;49.920;18.730;2024-02-16T13:54:51;5.47;;;1.80;;
42514;SDS011;28144;49.920;18.730;2024-02-16T13:57:18;3.40;;;1.80;;
42514;SDS011;28144;49.920;18.730;2024-02-16T13:59:45;4.00;;;1.98;;
42514;SDS011;28144;49.920;18.730;2024-02-16T14:02:12;4.00;;;2.08;;
42514;SDS011;28144;49.920;18.730;2024-02-16T14:04:37;4.38;;;1.98;;
42514;SDS011;28144;49.920;18.730;2024-02-16T14:07:04;3.80;;;2.72;;
42514;SDS011;28144;49.920;18.730;2024-02-16T14:09:30;5.30;;;3.03;;
42514;SDS011;28144;49.920;18.730;2024-02-16T14:11:56;5.57;;;2.95;;
42514;SDS011;28144;49.920;18.730;2024-02-16T14:14:24;6.38;;;3.55;;
42514;SDS011;28144;49.920;18.730;2024-02-16T14:16:50;3.05;;;2.22;;
42514;SDS011;28144;49.920;18.730;2024-02-16T14:19:16;4.50;;;2.17;;
42514;SDS011;28144;49.920;18.730;2024-02-16T14:21:42;7.70;;;2.50;;
42514;SDS011;28144;49.920;18.730;2024-02-16T14:24:08;3.03;;;2.00;;
42514;SDS011;28144;49.920;18.730;2024-02-16T14:26:36;4.90;;;2.55;;
42514;SDS011;28144;49.920;18.730;2024-02-16T14:31:29;6.07;;;2.78;;
42514;SDS011;28144;49.920;18.730;2024-02-16T14:33:55;4.90;;;3.03;;